createdAt,value
2022-08-12T00:00:16.815Z,98761.53
2022-08-12T00:02:43.691Z,98691.00
2022-08-12T00:05:13.100Z,98765.94
2022-08-12T00:07:41.294Z,98710.88
2022-08-12T00:10:08.309Z,98740.56
2022-08-12T00:12:34.893Z,98716.50
2022-08-12T00:15:01.935Z,98728.34
2022-08-12T00:17:29.643Z,98654.34
2022-08-12T00:19:56.200Z,98702.66
2022-08-12T00:22:23.557Z,98688.31
2022-08-12T00:24:50.320Z,98700.78
2022-08-12T00:27:17.329Z,98693.84
2022-08-12T00:29:47.836Z,98698.16
2022-08-12T00:32:16.667Z,98764.72
2022-08-12T00:35:08.940Z,98704.06
2022-08-12T00:37:35.872Z,98685.75
2022-08-12T00:40:11.271Z,98714.72
2022-08-12T00:42:41.136Z,98707.38
2022-08-12T00:45:08.730Z,98728.63
2022-08-12T00:47:36.003Z,98728.91
2022-08-12T00:50:04.066Z,98734.06
2022-08-12T00:52:32.958Z,98721.22
2022-08-12T00:55:01.666Z,98721.22
2022-08-12T00:57:31.879Z,98736.53
2022-08-12T01:00:09.015Z,98775.09
2022-08-12T01:02:39.204Z,98719.41
2022-08-12T01:05:09.381Z,98777.41
2022-08-12T01:07:38.255Z,98749.88
2022-08-12T01:10:05.527Z,98780.34
2022-08-12T01:12:33.070Z,98712.16
2022-08-12T01:15:01.132Z,98752.00
2022-08-12T01:17:28.056Z,98772.66
2022-08-12T01:19:56.034Z,98704.38
2022-08-12T01:22:41.379Z,98761.22
2022-08-12T01:25:16.330Z,98788.78
2022-08-12T01:27:44.366Z,98789.78
2022-08-12T01:30:12.998Z,98788.34
2022-08-12T01:32:41.382Z,98697.81
2022-08-12T01:35:12.245Z,98755.91
2022-08-12T01:38:02.674Z,98755.50
2022-08-12T01:40:36.386Z,98591.66
2022-08-12T01:43:10.060Z,98761.03
2022-08-12T01:45:55.768Z,98674.16
2022-08-12T01:48:42.438Z,98751.78
2022-08-12T01:52:16.005Z,98785.75
2022-08-12T01:54:11.060Z,98788.19
2022-08-12T01:57:03.836Z,98742.59
2022-08-12T01:59:46.950Z,98782.69
2022-08-12T02:02:25.400Z,98781.84
2022-08-12T02:05:17.979Z,98740.75
2022-08-12T02:07:55.645Z,98776.72
2022-08-12T02:10:49.313Z,98745.47
2022-08-12T02:13:50.248Z,98781.25
2022-08-12T02:16:26.918Z,98737.91
2022-08-12T02:18:59.586Z,98776.94
2022-08-12T02:21:43.379Z,98706.03
2022-08-12T02:24:15.607Z,98720.72
2022-08-12T02:26:44.509Z,98716.44
2022-08-12T02:29:12.821Z,98712.72
2022-08-12T02:31:43.140Z,98738.28
2022-08-12T02:34:10.478Z,98703.94
2022-08-12T02:36:39.687Z,98637.28
2022-08-12T02:39:13.280Z,98740.25
2022-08-12T02:41:43.308Z,98729.22
2022-08-12T02:44:12.370Z,98754.59
2022-08-12T02:46:41.909Z,98707.25
2022-08-12T02:49:22.423Z,98760.31
2022-08-12T02:51:50.098Z,98748.88
2022-08-12T02:54:17.055Z,98769.31
2022-08-12T02:56:50.514Z,98743.16
2022-08-12T02:59:21.440Z,98697.31
2022-08-12T03:01:54.116Z,98726.34
2022-08-12T03:05:05.967Z,98759.66
2022-08-12T03:07:56.068Z,98747.28
2022-08-12T03:10:36.919Z,98759.34
2022-08-12T03:13:06.561Z,98708.97
2022-08-12T03:15:33.333Z,98678.81
2022-08-12T03:18:25.949Z,98696.03
2022-08-12T03:20:55.831Z,98687.59
2022-08-12T03:23:29.984Z,98584.69
2022-08-12T03:25:59.727Z,98724.25
2022-08-12T03:28:29.285Z,98687.59
2022-08-12T03:30:57.327Z,98700.72
2022-08-12T03:33:26.087Z,98730.19
2022-08-12T03:35:54.766Z,98736.66
2022-08-12T03:38:26.472Z,98696.38
2022-08-12T03:41:03.776Z,98685.00
2022-08-12T03:43:34.679Z,98766.13
2022-08-12T03:46:08.923Z,98716.06
2022-08-12T03:48:36.123Z,98714.44
2022-08-12T03:51:03.356Z,98743.75
2022-08-12T03:53:31.490Z,98737.44
2022-08-12T03:55:58.210Z,98719.41
2022-08-12T03:58:25.700Z,98718.31
2022-08-12T04:00:52.406Z,98718.59
2022-08-12T04:03:20.723Z,98771.06
2022-08-12T04:05:55.592Z,98699.97
2022-08-12T04:08:26.246Z,98756.75
2022-08-12T04:10:56.419Z,98774.59
2022-08-12T04:13:23.025Z,98779.13
2022-08-12T04:15:50.046Z,98773.97
2022-08-12T04:18:16.713Z,98755.56
2022-08-12T04:20:44.578Z,98800.81
2022-08-12T04:23:11.855Z,98736.72
2022-08-12T04:25:43.839Z,98779.78
2022-08-12T04:28:13.464Z,98767.19
2022-08-12T04:30:40.783Z,98734.00
2022-08-12T04:33:08.466Z,98734.94
2022-08-12T04:35:35.702Z,98750.75
2022-08-12T04:38:02.878Z,98740.16
2022-08-12T04:40:32.336Z,98788.84
2022-08-12T04:43:00.465Z,98775.09
2022-08-12T04:45:27.204Z,98769.34
2022-08-12T04:47:53.784Z,98746.22
2022-08-12T04:50:34.579Z,98738.19
2022-08-12T04:53:05.460Z,98798.25
2022-08-12T04:55:33.387Z,98784.19
2022-08-12T04:58:00.409Z,98736.22
2022-08-12T05:00:27.271Z,98760.88
2022-08-12T05:02:54.045Z,98738.09
2022-08-12T05:05:22.639Z,98791.03
2022-08-12T05:07:54.492Z,98754.88
2022-08-12T05:10:33.798Z,98784.09
2022-08-12T05:13:07.465Z,98703.16
2022-08-12T05:16:04.451Z,98739.47
2022-08-12T05:18:39.258Z,98749.63
2022-08-12T05:21:08.387Z,98665.09
2022-08-12T05:23:39.770Z,98770.38
2022-08-12T05:26:06.881Z,98761.69
2022-08-12T05:28:33.629Z,98623.94
2022-08-12T05:31:00.683Z,98801.00
2022-08-12T05:33:28.847Z,98736.72
2022-08-12T05:35:55.768Z,98742.28
2022-08-12T05:38:22.307Z,98753.94
2022-08-12T05:40:49.092Z,98796.91
2022-08-12T05:43:15.711Z,98708.44
2022-08-12T05:45:44.837Z,98757.75
2022-08-12T05:48:12.649Z,98768.19
2022-08-12T05:50:40.334Z,98741.28
2022-08-12T05:53:06.981Z,98775.69
2022-08-12T05:55:34.546Z,98776.22
2022-08-12T05:58:01.428Z,98801.94
2022-08-12T06:00:28.371Z,98768.25
2022-08-12T06:02:56.465Z,98763.63
2022-08-12T06:05:23.557Z,98788.66
2022-08-12T06:08:01.556Z,98793.47
2022-08-12T06:10:31.696Z,98729.31
2022-08-12T06:13:04.624Z,98793.66
2022-08-12T06:15:33.486Z,98811.66
2022-08-12T06:18:14.069Z,98804.78
2022-08-12T06:20:44.064Z,98755.38
2022-08-12T06:23:10.755Z,98751.06
2022-08-12T06:25:37.682Z,98755.94
2022-08-12T06:28:13.743Z,98735.97
2022-08-12T06:30:40.401Z,98761.44
2022-08-12T06:33:24.855Z,98737.88
2022-08-12T06:35:57.704Z,98798.91
2022-08-12T06:38:26.833Z,98790.34
2022-08-12T06:40:55.764Z,98763.34
2022-08-12T06:43:22.416Z,98722.56
2022-08-12T06:45:48.954Z,98759.72
2022-08-12T06:48:15.669Z,98763.31
2022-08-12T06:50:42.458Z,98729.28
2022-08-12T06:53:09.722Z,98735.13
2022-08-12T06:55:36.850Z,98743.00
2022-08-12T06:58:10.170Z,98734.22
2022-08-12T07:00:38.092Z,98786.91
2022-08-12T07:03:16.438Z,98767.63
2022-08-12T07:05:50.984Z,98750.72
2022-08-12T07:08:18.191Z,98728.38
2022-08-12T07:10:47.500Z,98713.91
2022-08-12T07:13:14.317Z,98730.47
2022-08-12T07:15:40.935Z,98696.84
2022-08-12T07:18:11.456Z,98714.22
2022-08-12T07:20:52.280Z,98771.88
2022-08-12T07:23:19.666Z,98745.41
2022-08-12T07:25:46.594Z,98688.31
2022-08-12T07:28:19.878Z,98717.13
2022-08-12T07:30:47.772Z,98706.44
2022-08-12T07:33:14.730Z,98784.22
2022-08-12T07:35:41.477Z,98724.31
2022-08-12T07:38:29.843Z,98770.69
2022-08-12T07:41:18.005Z,98746.34
2022-08-12T07:43:59.047Z,98689.13
2022-08-12T07:46:37.695Z,98776.66
2022-08-12T07:49:08.187Z,98711.06
2022-08-12T07:51:35.372Z,98775.88
2022-08-12T07:54:03.367Z,98782.09
2022-08-12T07:56:31.789Z,98726.19
2022-08-12T07:58:59.284Z,98780.38
2022-08-12T08:01:26.724Z,98760.34
2022-08-12T08:03:56.628Z,98767.13
2022-08-12T08:06:23.214Z,98690.53
2022-08-12T08:08:49.770Z,98696.41
2022-08-12T08:11:16.979Z,98761.09
2022-08-12T08:13:45.478Z,98756.19
2022-08-12T08:16:12.936Z,98696.56
2022-08-12T08:18:39.775Z,98662.16
2022-08-12T08:21:06.400Z,98734.72
2022-08-12T08:23:35.381Z,98704.28
2022-08-12T08:26:03.956Z,98726.59
2022-08-12T08:28:30.535Z,98644.53
2022-08-12T08:30:57.189Z,98746.63
2022-08-12T08:34:04.168Z,98718.06
2022-08-12T08:36:16.229Z,98720.63
2022-08-12T08:38:57.555Z,98708.63
2022-08-12T08:42:14.108Z,98684.63
2022-08-12T08:44:12.914Z,98718.91
2022-08-12T08:46:40.919Z,98752.09
2022-08-12T08:49:07.752Z,98762.34
2022-08-12T08:51:34.582Z,98628.53
2022-08-12T08:54:03.539Z,98719.44
2022-08-12T08:56:30.488Z,98700.00
2022-08-12T08:58:59.943Z,98680.03
2022-08-12T09:01:37.996Z,98763.72
2022-08-12T09:05:08.638Z,98737.00
2022-08-12T09:06:53.795Z,98752.16
2022-08-12T09:09:23.793Z,98708.66
2022-08-12T09:12:06.577Z,98720.53
2022-08-12T09:14:37.317Z,98708.38
2022-08-12T09:17:05.752Z,98701.34
2022-08-12T09:19:33.367Z,98728.34
2022-08-12T09:22:00.683Z,98719.19
2022-08-12T09:24:30.223Z,98623.66
2022-08-12T09:26:58.809Z,98666.28
2022-08-12T09:30:11.878Z,98688.41
2022-08-12T09:32:56.610Z,98718.91
2022-08-12T09:34:59.260Z,98681.94
2022-08-12T09:37:26.375Z,98702.72
2022-08-12T09:40:08.099Z,98703.28
2022-08-12T09:42:57.751Z,98740.22
2022-08-12T09:46:06.525Z,98652.81
2022-08-12T09:48:19.794Z,98730.47
2022-08-12T09:50:51.910Z,98675.41
2022-08-12T09:53:36.399Z,98730.34
2022-08-12T09:56:59.842Z,98696.91
2022-08-12T09:58:59.860Z,98655.13
2022-08-12T10:01:35.282Z,98688.81
2022-08-12T10:04:19.250Z,98651.84
2022-08-12T10:06:54.220Z,98656.34
2022-08-12T10:09:28.785Z,98658.91
2022-08-12T10:12:12.999Z,98664.22
2022-08-12T10:14:40.281Z,98664.63
2022-08-12T10:17:16.922Z,98654.91
2022-08-12T10:19:51.637Z,98663.06
2022-08-12T10:22:49.138Z,98674.13
2022-08-12T10:25:17.596Z,98606.19
2022-08-12T10:28:05.430Z,98607.00
2022-08-12T10:30:41.498Z,98665.97
2022-08-12T10:33:18.881Z,98630.44
2022-08-12T10:35:46.205Z,98664.19
2022-08-12T10:38:36.523Z,98629.13
2022-08-12T10:41:00.234Z,98606.75
2022-08-12T10:43:30.739Z,98623.28
2022-08-12T10:46:17.489Z,98626.47
2022-08-12T10:48:58.447Z,98657.34
2022-08-12T10:52:03.628Z,98641.38
2022-08-12T10:54:26.960Z,98681.44
2022-08-12T10:56:55.058Z,98606.81
2022-08-12T11:00:29.487Z,98586.38
2022-08-12T11:04:31.480Z,98674.78
2022-08-12T11:04:56.786Z,98596.19
2022-08-12T11:08:36.245Z,98618.78
2022-08-12T11:10:10.791Z,98614.69
2022-08-12T11:12:58.550Z,98607.88
2022-08-12T11:15:33.415Z,98588.63
2022-08-12T11:18:18.280Z,98609.88
2022-08-12T11:20:46.889Z,98639.50
2022-08-12T11:23:24.981Z,98608.50
2022-08-12T11:26:05.367Z,98590.22
2022-08-12T11:28:37.661Z,98657.28
2022-08-12T11:31:07.286Z,98613.38
2022-08-12T11:34:06.192Z,98560.91
2022-08-12T11:36:26.133Z,98519.97
2022-08-12T11:38:53.052Z,98553.84
2022-08-12T11:41:28.131Z,98602.06
2022-08-12T11:44:35.117Z,98478.94
2022-08-12T11:46:51.200Z,98636.69
2022-08-12T11:49:31.693Z,98591.69
2022-08-12T11:52:00.802Z,98527.78
2022-08-12T11:54:29.770Z,98594.78
2022-08-12T11:57:02.236Z,98568.78
2022-08-12T12:02:20.126Z,98570.19
2022-08-12T12:04:52.645Z,98564.44
2022-08-12T12:08:36.307Z,98542.88
2022-08-12T12:10:15.768Z,98615.72
2022-08-12T12:12:49.914Z,98541.88
2022-08-12T12:15:21.248Z,98523.63
2022-08-12T12:17:55.614Z,98583.34
2022-08-12T12:20:25.970Z,98608.34
2022-08-12T12:22:54.657Z,98557.34
2022-08-12T12:25:21.417Z,98575.44
2022-08-12T12:28:08.082Z,98523.97
2022-08-12T12:30:55.223Z,98535.72
2022-08-12T12:33:22.203Z,98574.91
2022-08-12T12:36:17.042Z,98447.19
2022-08-12T12:38:35.702Z,98527.59
2022-08-12T12:41:16.236Z,98541.69
2022-08-12T12:43:47.572Z,98553.34
2022-08-12T12:46:30.063Z,98594.97
2022-08-12T12:48:56.809Z,98500.47
2022-08-12T12:52:13.307Z,98546.72
2022-08-12T12:54:10.348Z,98491.97
2022-08-12T12:56:37.425Z,98516.81
2022-08-12T12:59:04.204Z,98496.44
2022-08-12T13:01:34.106Z,98526.03
2022-08-12T13:04:05.013Z,98461.03
2022-08-12T13:06:32.009Z,98480.56
2022-08-12T13:09:03.175Z,98519.06
2022-08-12T13:11:40.834Z,98567.66
2022-08-12T13:14:29.063Z,98488.69
2022-08-12T13:16:57.520Z,98539.41
2022-08-12T13:19:37.437Z,98515.41
2022-08-12T13:22:08.169Z,98173.38
2022-08-12T13:24:34.835Z,98421.78
2022-08-12T13:27:01.793Z,98423.78
2022-08-12T13:29:29.744Z,98517.63
2022-08-12T13:32:19.684Z,98494.72
2022-08-12T13:34:43.481Z,98490.72
2022-08-12T13:37:10.214Z,98522.00
2022-08-12T13:39:37.808Z,98556.50
2022-08-12T13:42:04.730Z,98398.03
2022-08-12T13:44:41.108Z,98558.47
2022-08-12T13:47:18.532Z,98490.22
2022-08-12T13:49:54.832Z,98526.72
2022-08-12T13:52:22.800Z,98476.31
2022-08-12T13:54:56.056Z,98499.53
2022-08-12T13:57:24.011Z,98500.78
2022-08-12T13:59:55.220Z,98542.97
2022-08-12T14:02:22.826Z,98523.78
2022-08-12T14:04:56.492Z,98246.69
2022-08-12T14:07:26.041Z,98490.91
2022-08-12T14:09:53.122Z,98497.81
2022-08-12T14:12:21.319Z,98476.72
2022-08-12T14:14:50.889Z,98480.25
2022-08-12T14:17:19.749Z,98533.88
2022-08-12T14:19:52.993Z,98524.66
2022-08-12T14:22:21.040Z,98411.25
2022-08-12T14:24:52.805Z,98454.38
2022-08-12T14:28:02.676Z,98523.09
2022-08-12T14:30:15.676Z,98439.53
2022-08-12T14:32:50.865Z,98433.88
2022-08-12T14:35:20.041Z,98463.59
2022-08-12T14:37:56.168Z,98468.44
2022-08-12T14:40:29.986Z,98532.03
2022-08-12T14:42:58.836Z,98464.00
2022-08-12T14:45:45.560Z,98405.34
2022-08-12T14:48:18.705Z,98264.75
2022-08-12T14:51:09.430Z,98449.31
2022-08-12T14:55:18.225Z,98454.06
2022-08-12T14:56:59.808Z,98461.38
2022-08-12T14:59:23.348Z,98357.81
2022-08-12T15:01:52.436Z,98446.34
2022-08-12T15:04:21.481Z,98444.28
2022-08-12T15:06:52.753Z,98428.72
2022-08-12T15:09:29.207Z,98473.06
2022-08-12T15:12:04.051Z,98417.00
2022-08-12T15:14:35.396Z,98472.03
2022-08-12T15:17:04.746Z,98506.78
2022-08-12T15:20:17.985Z,98429.03
2022-08-12T15:22:38.021Z,98475.41
2022-08-12T15:25:07.464Z,98465.81
2022-08-12T15:28:05.411Z,98487.41
2022-08-12T15:30:24.387Z,98397.44
2022-08-12T15:32:52.194Z,98484.25
2022-08-12T15:35:20.314Z,98338.25
2022-08-12T15:38:10.557Z,98372.25
2022-08-12T15:40:46.884Z,98380.59
2022-08-12T15:43:52.105Z,98506.81
2022-08-12T15:46:06.205Z,98450.38
2022-08-12T15:48:34.124Z,98502.59
2022-08-12T15:51:02.839Z,98364.94
2022-08-12T15:53:30.372Z,98494.94
2022-08-12T15:56:00.664Z,98412.00
2022-08-12T15:58:28.126Z,98448.53
2022-08-12T16:01:00.739Z,98426.03
2022-08-12T16:03:28.411Z,98495.28
2022-08-12T16:06:22.632Z,98470.16
2022-08-12T16:09:00.846Z,98434.03
2022-08-12T16:11:29.366Z,98447.25
2022-08-12T16:14:08.309Z,98422.72
2022-08-12T16:16:37.239Z,98442.84
2022-08-12T16:19:18.939Z,98388.91
2022-08-12T16:21:57.941Z,98401.91
2022-08-12T16:24:25.125Z,98374.56
2022-08-12T16:26:54.259Z,98471.00
2022-08-12T16:29:22.095Z,98436.31
2022-08-12T16:31:49.060Z,98456.19
2022-08-12T16:34:40.140Z,98431.50
2022-08-12T16:37:07.334Z,98338.66
2022-08-12T16:39:35.332Z,98470.97
2022-08-12T16:42:21.662Z,98425.44
2022-08-12T16:44:49.681Z,98314.31
2022-08-12T16:47:16.524Z,98448.63
2022-08-12T16:49:45.463Z,98329.59
2022-08-12T16:52:12.708Z,98355.66
2022-08-12T16:54:39.390Z,98407.13
2022-08-12T16:57:06.386Z,98428.97
2022-08-12T16:59:53.285Z,98419.22
2022-08-12T17:02:31.583Z,98450.91
2022-08-12T17:05:03.007Z,98465.22
2022-08-12T17:07:30.091Z,98488.16
2022-08-12T17:10:06.193Z,98486.44
2022-08-12T17:12:33.015Z,98426.06
2022-08-12T17:15:00.821Z,98425.81
2022-08-12T17:17:39.082Z,98427.25
2022-08-12T17:20:29.279Z,98446.59
2022-08-12T17:22:58.550Z,98493.47
2022-08-12T17:25:25.656Z,98454.66
2022-08-12T17:27:57.473Z,98393.63
2022-08-12T17:30:25.661Z,98444.50
2022-08-12T17:32:53.668Z,98467.19
2022-08-12T17:35:20.373Z,98485.19
2022-08-12T17:37:47.293Z,98437.31
2022-08-12T17:40:36.373Z,98481.25
2022-08-12T17:43:03.982Z,98431.94
2022-08-12T17:45:51.001Z,98444.09
2022-08-12T17:48:17.851Z,98451.09
2022-08-12T17:50:47.407Z,98447.09
2022-08-12T17:53:19.388Z,98491.28
2022-08-12T17:55:52.236Z,98441.47
2022-08-12T17:58:22.919Z,98498.03
2022-08-12T18:01:04.342Z,98473.50
2022-08-12T18:04:04.632Z,98445.75
2022-08-12T18:06:18.699Z,98463.25
2022-08-12T18:08:55.495Z,98446.81
2022-08-12T18:12:06.660Z,98499.34
2022-08-12T18:14:10.829Z,98500.72
2022-08-12T18:16:42.425Z,98413.44
2022-08-12T18:19:10.138Z,98488.31
2022-08-12T18:22:02.293Z,98488.03
2022-08-12T18:24:29.464Z,98353.88
2022-08-12T18:26:57.187Z,98385.41
2022-08-12T18:29:27.139Z,98493.97
2022-08-12T18:32:53.913Z,98449.22
2022-08-12T18:34:58.142Z,98460.75
2022-08-12T18:37:42.129Z,98446.72
2022-08-12T18:40:10.122Z,98472.03
2022-08-12T18:42:37.339Z,98438.25
2022-08-12T18:45:07.789Z,98446.91
2022-08-12T18:47:49.826Z,98469.63
2022-08-12T18:50:17.908Z,98404.13
2022-08-12T18:52:48.456Z,98472.06
2022-08-12T18:55:16.179Z,98464.25
2022-08-12T18:58:07.006Z,98449.09
2022-08-12T19:00:33.957Z,98452.56
2022-08-12T19:03:00.808Z,98460.13
2022-08-12T19:05:54.002Z,98471.66
2022-08-12T19:08:15.495Z,98423.13
2022-08-12T19:10:50.610Z,98513.22
2022-08-12T19:13:23.941Z,98493.25
2022-08-12T19:15:57.429Z,98497.75
2022-08-12T19:18:29.738Z,98515.66
2022-08-12T19:20:59.392Z,98512.97
2022-08-12T19:23:35.206Z,98444.72
2022-08-12T19:26:04.148Z,98470.31
2022-08-12T19:28:35.502Z,98520.47
2022-08-12T19:31:23.462Z,98458.38
2022-08-12T19:34:47.180Z,98467.06
2022-08-12T19:36:58.255Z,98470.34
2022-08-12T19:39:25.283Z,98495.16
2022-08-12T19:42:01.231Z,98505.44
2022-08-12T19:44:29.802Z,98527.53
2022-08-12T19:46:56.810Z,98456.25
2022-08-12T19:49:23.881Z,98507.72
2022-08-12T19:51:50.715Z,98458.84
2022-08-12T19:54:19.925Z,98510.09
2022-08-12T19:56:47.647Z,98471.53
2022-08-12T19:59:18.735Z,98477.16
2022-08-12T20:02:02.547Z,98528.41
2022-08-12T20:04:32.342Z,98503.75
2022-08-12T20:06:58.990Z,98462.69
2022-08-12T20:09:27.270Z,98503.84
2022-08-12T20:12:14.178Z,98452.59
2022-08-12T20:14:46.030Z,98478.53
2022-08-12T20:17:13.270Z,98551.16
2022-08-12T20:20:05.500Z,98503.38
2022-08-12T20:22:33.210Z,98533.25
2022-08-12T20:25:02.506Z,98480.03
2022-08-12T20:28:03.197Z,98499.59
2022-08-12T20:30:20.437Z,98549.44
2022-08-12T20:33:04.666Z,98506.38
2022-08-12T20:35:39.000Z,98513.81
2022-08-12T20:38:26.430Z,98506.38
2022-08-12T20:40:55.262Z,98468.50
2022-08-12T20:43:23.921Z,98497.63
2022-08-12T20:45:57.517Z,98509.47
2022-08-12T20:48:25.515Z,98510.94
2022-08-12T20:50:55.527Z,98498.69
2022-08-12T20:53:32.937Z,98513.81
2022-08-12T20:56:20.790Z,98500.28
2022-08-12T20:58:51.357Z,98493.78
2022-08-12T21:01:23.860Z,98554.13
2022-08-12T21:03:58.252Z,98516.75
2022-08-12T21:06:25.167Z,98489.69
2022-08-12T21:08:53.363Z,98504.53
2022-08-12T21:11:20.284Z,98517.66
2022-08-12T21:13:47.164Z,98541.41
2022-08-12T21:16:13.757Z,98496.97
2022-08-12T21:18:41.061Z,98535.44
2022-08-12T21:21:23.969Z,98513.88
2022-08-12T21:23:51.362Z,98507.13
2022-08-12T21:26:22.918Z,98553.00
2022-08-12T21:28:58.692Z,98490.84
2022-08-12T21:32:40.538Z,98580.25
2022-08-12T21:34:18.264Z,98533.63
2022-08-12T21:36:49.535Z,98566.41
2022-08-12T21:39:22.209Z,98513.44
2022-08-12T21:41:53.739Z,98524.75
2022-08-12T21:44:24.536Z,98579.50
2022-08-12T21:47:20.966Z,98505.84
2022-08-12T21:49:55.529Z,98533.00
2022-08-12T21:52:34.624Z,98513.63
2022-08-12T21:55:04.043Z,98555.22
2022-08-12T21:57:49.253Z,98535.56
2022-08-12T22:00:19.439Z,98511.81
2022-08-12T22:02:48.446Z,98511.50
2022-08-12T22:05:15.312Z,98531.31
2022-08-12T22:07:46.037Z,98528.88
2022-08-12T22:10:20.505Z,98544.22
2022-08-12T22:12:56.089Z,98502.97
2022-08-12T22:15:25.692Z,98503.72
2022-08-12T22:17:55.277Z,98549.31
2022-08-12T22:20:22.346Z,98524.16
2022-08-12T22:22:57.304Z,98546.72
2022-08-12T22:25:26.824Z,98511.31
2022-08-12T22:27:53.938Z,98560.44
2022-08-12T22:30:21.435Z,98530.66
2022-08-12T22:32:50.593Z,98526.25
2022-08-12T22:35:22.248Z,98512.78
2022-08-12T22:37:53.682Z,98435.09
2022-08-12T22:40:23.853Z,98561.03
2022-08-12T22:42:52.090Z,98085.44
2022-08-12T22:45:23.108Z,98024.25
2022-08-12T22:47:54.857Z,98562.84
2022-08-12T22:50:27.401Z,98246.38
2022-08-12T22:52:56.910Z,98466.78
2022-08-12T22:56:00.314Z,98540.81
2022-08-12T22:58:12.512Z,98524.09
2022-08-12T23:00:39.531Z,98508.34
2022-08-12T23:03:06.361Z,98570.38
2022-08-12T23:05:57.190Z,98498.06
2022-08-12T23:08:22.268Z,98522.28
2022-08-12T23:10:50.268Z,98509.66
2022-08-12T23:13:17.250Z,98523.00
2022-08-12T23:15:47.812Z,98484.94
2022-08-12T23:18:21.560Z,98506.44
2022-08-12T23:20:50.192Z,98546.50
2022-08-12T23:23:17.067Z,98499.44
2022-08-12T23:25:55.635Z,98494.69
2022-08-12T23:28:30.058Z,98549.75
2022-08-12T23:30:58.006Z,98511.41
2022-08-12T23:33:59.929Z,98518.72
2022-08-12T23:36:31.875Z,98512.81
2022-08-12T23:40:07.281Z,98501.44
2022-08-12T23:42:17.654Z,98495.88
2022-08-12T23:44:44.690Z,98562.66
2022-08-12T23:47:11.358Z,98482.84
2022-08-12T23:49:57.268Z,98543.72
2022-08-12T23:52:28.654Z,98569.03
2022-08-12T23:55:04.982Z,98518.13
2022-08-12T23:58:18.455Z,98522.69
